Time;durP1;ratioP1;P1;durP2;ratioP2;P2;SDS_P1;SDS_P2;PMS_P1;PMS_P2;Temp;Humidity;BMP_temperature;BMP_pressure;BME280_temperature;BME280_humidity;BME280_pressure;Samples;Min_cycle;Max_cycle;Signal;HPM_P1;HPM_P2
2021/10/10 03:31:39;;;;;;;13.80;10.73;;;;;;;8.75;59.54;99729.28;7874667;22;20230;-83
2021/10/10 03:35:00;;;;;;;13.67;9.90;;;;;;;9.16;58.71;99734.38;6939638;28;20222;-82
2021/10/10 03:38:22;;;;;;;16.97;9.53;;;;;;;9.16;58.12;99729.81;6921985;28;20285;-82
2021/10/10 03:41:43;;;;;;;12.77;9.53;;;;;;;9.29;56.72;99740.91;6921526;28;20713;-84
2021/10/10 03:45:06;;;;;;;12.37;10.27;;;;;;;9.04;57.61;99741.16;6936078;28;20287;-83
2021/10/10 03:48:29;;;;;;;11.60;9.53;;;;;;;9.15;57.94;99721.94;6949170;28;20217;-84
2021/10/10 03:51:51;;;;;;;11.93;9.80;;;;;;;9.26;57.11;99724.22;6949186;28;20249;-83
2021/10/10 03:55:30;;;;;;;14.57;9.73;;;;;;;9.08;57.72;99720.94;6949192;28;20572;-83
2021/10/10 03:58:52;;;;;;;15.13;11.17;;;;;;;9.07;56.92;99721.13;6949586;28;20206;-83
2021/10/10 04:02:13;;;;;;;13.50;10.37;;;;;;;8.70;57.14;99731.63;6948550;28;20242;-82
2021/10/10 04:05:41;;;;;;;13.67;9.77;;;;;;;8.84;57.04;99725.56;6950441;28;20216;-84
2021/10/10 04:09:03;;;;;;;10.43;9.27;;;;;;;8.73;56.92;99723.25;6949850;28;20209;-83
2021/10/10 04:12:25;;;;;;;10.70;9.30;;;;;;;8.43;56.61;99708.66;6950070;28;20304;-84
2021/10/10 04:15:46;;;;;;;12.90;9.73;;;;;;;8.21;58.91;99733.53;6949259;28;20229;-83
2021/10/10 04:19:08;;;;;;;14.63;10.33;;;;;;;8.18;59.45;99730.28;6948903;28;20230;-82
2021/10/10 04:22:31;;;;;;;12.63;9.50;;;;;;;8.11;59.47;99724.75;6947658;28;20621;-82
2021/10/10 04:25:52;;;;;;;11.63;9.17;;;;;;;8.13;59.08;99733.47;6948273;28;20214;-82
2021/10/10 04:29:14;;;;;;;16.47;9.37;;;;;;;8.35;58.55;99711.38;6948254;28;20205;-82
2021/10/10 04:32:35;;;;;;;12.43;9.73;;;;;;;8.45;58.31;99730.00;6947975;28;20313;-82
2021/10/10 04:35:57;;;;;;;11.77;9.27;;;;;;;8.61;57.87;99727.28;6948764;28;20231;-82
2021/10/10 04:39:20;;;;;;;13.27;10.33;;;;;;;8.73;57.03;99731.31;6947215;28;20233;-81
2021/10/10 04:42:42;;;;;;;13.97;9.00;;;;;;;8.50;56.75;99708.81;6947110;28;20233;-83
2021/10/10 04:46:03;;;;;;;12.33;9.63;;;;;;;8.43;56.72;99724.78;6948810;28;20209;-81
2021/10/10 04:49:25;;;;;;;12.67;9.57;;;;;;;7.78;57.55;99708.78;6949327;28;20205;-81
2021/10/10 04:52:46;;;;;;;11.53;9.67;;;;;;;7.77;58.42;99732.09;6948379;28;20225;-82
2021/10/10 04:56:09;;;;;;;14.47;10.57;;;;;;;7.90;59.15;99728.94;6948746;28;20202;-81
2021/10/10 04:59:31;;;;;;;10.37;9.00;;;;;;;7.95;58.51;99723.91;6950283;28;20568;-81
2021/10/10 05:02:53;;;;;;;17.07;9.90;;;;;;;7.91;58.33;99727.94;6949181;28;20651;-82
2021/10/10 05:06:15;;;;;;;12.53;9.43;;;;;;;8.02;58.55;99728.44;6948794;28;20668;-81
2021/10/10 05:09:37;;;;;;;12.40;9.27;;;;;;;7.97;58.16;99736.19;6949313;28;20203;-81
2021/10/10 05:12:59;;;;;;;10.40;9.27;;;;;;;8.04;57.91;99733.66;6949094;28;20234;-81
2021/10/10 05:16:21;;;;;;;12.70;9.27;;;;;;;7.73;57.74;99725.38;6951646;28;20211;-81
2021/10/10 05:19:43;;;;;;;14.27;10.73;;;;;;;7.64;58.21;99729.06;6955062;28;20210;-81
2021/10/10 05:23:04;;;;;;;17.50;11.03;;;;;;;7.73;58.33;99708.44;6947891;28;20241;-82
2021/10/10 05:26:26;;;;;;;13.73;10.10;;;;;;;7.84;58.55;99726.91;6949614;28;20679;-84
2021/10/10 05:29:49;;;;;;;13.03;9.47;;;;;;;7.90;58.46;99737.00;6920546;28;20211;-82
2021/10/10 05:33:11;;;;;;;13.33;10.00;;;;;;;7.78;57.82;99717.66;6931428;28;20229;-82
2021/10/10 05:36:32;;;;;;;14.47;9.60;;;;;;;7.39;58.15;99737.19;6926335;28;20255;-81
2021/10/10 05:39:54;;;;;;;13.03;10.43;;;;;;;7.15;58.88;99731.75;6940892;28;20280;-82
2021/10/10 05:43:16;;;;;;;12.40;10.70;;;;;;;7.19;60.84;99736.59;6944753;28;20745;-81
2021/10/10 05:46:39;;;;;;;14.93;11.03;;;;;;;7.44;60.17;99719.63;6948770;28;20213;-82
2021/10/10 05:50:00;;;;;;;12.97;9.90;;;;;;;7.74;59.52;99734.28;6948034;28;20250;-82
2021/10/10 05:53:23;;;;;;;16.83;11.27;;;;;;;7.92;59.50;99743.03;6947179;28;20230;-82
2021/10/10 05:56:44;;;;;;;16.93;10.73;;;;;;;7.82;58.28;99726.22;6949615;28;20306;-84
2021/10/10 06:00:07;;;;;;;11.73;10.17;;;;;;;8.14;58.08;99727.09;6952354;28;20206;-79
2021/10/10 06:03:30;;;;;;;11.67;9.93;;;;;;;8.10;57.81;99731.16;6927761;28;20293;-80
2021/10/10 06:06:52;;;;;;;15.77;10.43;;;;;;;8.27;57.70;99729.31;6923976;28;20207;-80
2021/10/10 06:10:13;;;;;;;16.60;10.87;;;;;;;7.64;58.66;99739.78;6941596;28;20216;-80
2021/10/10 06:13:35;;;;;;;14.50;10.97;;;;;;;7.86;58.48;99749.06;6950572;28;20559;-80
2021/10/10 06:16:57;;;;;;;15.97;10.50;;;;;;;7.94;58.81;99744.53;6951653;28;20207;-80
2021/10/10 06:20:20;;;;;;;16.50;11.90;;;;;;;7.75;59.49;99749.38;6945269;28;20207;-80
2021/10/10 06:23:46;;;;;;;20.23;11.03;;;;;;;7.70;59.57;99744.50;6925179;28;20224;-80
2021/10/10 06:27:08;;;;;;;15.03;11.87;;;;;;;7.88;59.46;99755.94;6948529;28;20198;-81
2021/10/10 06:30:29;;;;;;;17.40;13.07;;;;;;;7.67;59.28;99735.94;6951222;28;20191;-80
2021/10/10 06:33:51;;;;;;;18.40;10.87;;;;;;;8.09;59.45;99756.34;6937329;28;20208;-80
2021/10/10 06:37:14;;;;;;;15.73;11.40;;;;;;;8.04;58.97;99739.88;6947137;28;20668;-80
2021/10/10 06:40:36;;;;;;;13.93;10.93;;;;;;;8.78;58.47;99748.59;6950989;28;20230;-81
2021/10/10 06:43:58;;;;;;;14.27;10.40;;;;;;;9.24;56.81;99753.19;6945512;28;20199;-81
2021/10/10 06:47:19;;;;;;;14.60;10.27;;;;;;;9.40;55.50;99764.72;6923910;28;20278;-82
2021/10/10 06:50:41;;;;;;;15.07;10.33;;;;;;;10.30;54.32;99762.22;6925377;28;20219;-82
2021/10/10 06:54:04;;;;;;;11.87;10.57;;;;;;;10.49;53.72;99732.06;6950946;28;20557;-82
2021/10/10 06:57:29;;;;;;;15.27;10.67;;;;;;;11.08;52.50;99760.81;6951849;28;20200;-81
2021/10/10 07:00:50;;;;;;;12.63;10.77;;;;;;;11.53;50.80;99754.38;6948376;28;20247;-81
2021/10/10 07:04:12;;;;;;;10.83;9.57;;;;;;;11.74;50.31;99759.88;6935163;28;20196;-81
2021/10/10 07:07:33;;;;;;;11.80;10.50;;;;;;;12.08;50.18;99744.69;6938834;28;20192;-83
2021/10/10 07:10:56;;;;;;;10.67;9.43;;;;;;;12.18;49.30;99755.16;6955383;28;20298;-84
2021/10/10 07:14:18;;;;;;;11.83;9.83;;;;;;;12.38;49.45;99745.38;6957816;28;20210;-81
2021/10/10 07:17:40;;;;;;;12.47;9.57;;;;;;;12.81;49.04;99758.66;6954927;28;20200;-81
2021/10/10 07:21:07;;;;;;;13.30;10.13;;;;;;;12.83;49.05;99758.47;6957143;28;20297;-82
2021/10/10 07:28:24;;;;;;;20.63;10.80;;;;;;;12.51;49.85;99761.75;6865903;28;20566;-84
2021/10/10 07:32:39;;;;;;;16.30;10.47;;;;;;;12.26;50.80;99752.34;6883167;28;20239;-89
2021/10/10 07:49:23;;;;;;;12.20;10.80;;;;;;;13.92;48.31;99743.09;7123612;27;20505;-89
2021/10/10 07:52:45;;;;;;;14.10;11.53;;;;;;;13.94;47.63;99738.31;7091745;28;20228;-88
2021/10/10 07:56:10;;;;;;;13.50;11.10;;;;;;;13.79;48.89;99772.84;7083989;28;20210;-88
2021/10/10 08:03:23;;;;;;;17.53;10.63;;;;;;;13.91;48.98;99720.56;7064143;28;20272;-90
2021/10/10 08:06:47;;;;;;;15.40;12.10;;;;;;;14.57;46.28;99730.50;7060295;28;20225;-90
2021/10/10 08:10:09;;;;;;;14.40;12.13;;;;;;;15.29;46.11;99736.69;7061005;28;20210;-90
2021/10/10 08:18:08;;;;;;;14.40;11.37;;;;;;;15.36;47.18;99756.59;6985399;28;20199;-89
2021/10/10 08:21:41;;;;;;;15.77;11.17;;;;;;;15.15;47.37;99696.22;6985041;28;20229;-90
2021/10/10 08:25:36;;;;;;;19.70;12.40;;;;;;;15.44;46.85;99706.59;6985468;28;20264;-89
2021/10/10 08:29:05;;;;;;;16.10;12.00;;;;;;;15.99;46.40;99700.50;6985842;28;20229;-91
2021/10/10 08:32:30;;;;;;;15.50;11.70;;;;;;;16.40;45.11;99756.16;6987685;28;20242;-89
2021/10/10 08:40:12;;;;;;;14.77;11.77;;;;;;;17.04;43.54;99704.13;6885818;28;20207;-89
2021/10/10 08:43:34;;;;;;;17.30;12.77;;;;;;;18.14;39.86;99704.66;6973650;28;20213;-90
2021/10/10 08:50:33;;;;;;;14.30;12.17;;;;;;;18.11;40.29;99746.91;7006806;28;20236;-89
2021/10/10 08:54:17;;;;;;;16.40;12.10;;;;;;;19.06;38.22;99716.69;7037896;28;20207;-90
2021/10/10 08:57:40;;;;;;;22.07;13.00;;;;;;;19.02;38.58;99728.28;7076559;28;20544;-90
2021/10/10 09:01:09;;;;;;;15.43;11.33;;;;;;;18.16;39.30;99754.44;7046358;28;20573;-88
2021/10/10 09:04:38;;;;;;;16.23;11.80;;;;;;;16.43;42.40;99744.84;7034876;28;20215;-84
2021/10/10 09:08:00;;;;;;;16.53;12.30;;;;;;;16.25;43.67;99752.88;7037273;28;20233;-85
2021/10/10 09:11:22;;;;;;;17.43;13.30;;;;;;;16.10;42.04;99744.16;7038020;28;20229;-83
2021/10/10 09:14:47;;;;;;;19.50;12.50;;;;;;;15.85;43.69;99748.69;7038348;28;20292;-82
2021/10/10 09:18:10;;;;;;;14.07;11.63;;;;;;;15.08;44.64;99753.28;7043011;28;20205;-82
2021/10/10 09:21:31;;;;;;;18.93;12.47;;;;;;;14.98;45.18;99733.84;7056722;28;20218;-82
2021/10/10 09:24:58;;;;;;;16.90;12.30;;;;;;;16.06;42.52;99747.53;7052610;28;20193;-82
2021/10/10 09:28:21;;;;;;;20.67;12.33;;;;;;;16.07;42.97;99749.22;7034513;28;20223;-82
2021/10/10 09:31:44;;;;;;;16.70;12.17;;;;;;;16.55;42.76;99734.06;7038420;22;20891;-83
2021/10/10 09:35:06;;;;;;;20.13;11.53;;;;;;;15.66;43.07;99697.09;7012095;28;20210;-83
2021/10/10 09:38:28;;;;;;;16.97;12.10;;;;;;;15.93;42.94;99743.00;7012035;28;20214;-82
2021/10/10 09:41:54;;;;;;;15.47;11.47;;;;;;;16.07;43.45;99741.03;7011224;28;20718;-83
2021/10/10 09:45:20;;;;;;;16.53;11.63;;;;;;;15.22;44.78;99721.50;6984274;28;20829;-83
2021/10/10 09:48:43;;;;;;;16.53;11.53;;;;;;;15.22;43.57;99737.78;6967378;28;20219;-82
2021/10/10 09:52:12;;;;;;;13.90;10.50;;;;;;;15.48;44.44;99738.59;6986514;28;20238;-84
2021/10/10 09:55:34;;;;;;;16.27;11.10;;;;;;;16.60;41.95;99748.69;6972853;28;20199;-82
2021/10/10 09:58:56;;;;;;;14.53;10.33;;;;;;;16.97;40.92;99734.13;6957025;28;20211;-82
2021/10/10 10:02:18;;;;;;;12.07;10.57;;;;;;;17.97;38.26;99728.22;6956183;28;20222;-83
2021/10/10 10:05:41;;;;;;;14.30;10.30;;;;;;;17.78;39.36;99724.69;6962527;28;20198;-83
2021/10/10 10:09:05;;;;;;;16.40;10.60;;;;;;;16.10;41.75;99727.03;6980208;28;20233;-83
2021/10/10 10:12:26;;;;;;;12.17;9.60;;;;;;;16.97;39.29;99725.97;6975387;28;20225;-84
2021/10/10 10:15:48;;;;;;;15.27;10.63;;;;;;;17.16;38.64;99730.38;6955106;28;20201;-83
2021/10/10 10:19:10;;;;;;;16.73;10.53;;;;;;;16.97;39.45;99728.69;6956082;28;20219;-82
2021/10/10 10:22:35;;;;;;;15.90;10.17;;;;;;;16.88;40.07;99723.75;6980438;28;20236;-83
2021/10/10 10:25:57;;;;;;;19.37;11.77;;;;;;;18.17;38.96;99712.41;6970736;28;20210;-82
2021/10/10 10:29:23;;;;;;;14.03;9.43;;;;;;;18.90;35.22;99678.25;6954946;28;20294;-81
2021/10/10 10:32:46;;;;;;;14.43;10.03;;;;;;;19.46;35.46;99705.84;6954806;28;20286;-84
2021/10/10 10:36:07;;;;;;;13.17;9.37;;;;;;;19.44;34.21;99710.72;6955112;28;20200;-84
2021/10/10 10:39:35;;;;;;;13.40;8.80;;;;;;;18.90;35.18;99706.44;6954669;28;20218;-83
2021/10/10 10:43:00;;;;;;;9.80;8.80;;;;;;;18.32;34.95;99700.03;6953733;28;20595;-85
2021/10/10 10:46:22;;;;;;;11.97;8.97;;;;;;;18.93;35.46;99703.22;6953683;28;20207;-83
2021/10/10 10:50:00;;;;;;;14.60;10.17;;;;;;;17.82;36.93;99720.44;6954664;28;20226;-84
2021/10/10 10:53:23;;;;;;;12.70;8.77;;;;;;;18.33;36.39;99709.88;6957128;28;20215;-83
2021/10/10 10:56:46;;;;;;;14.80;9.87;;;;;;;17.85;36.96;99708.22;6966914;28;20204;-83
2021/10/10 11:00:10;;;;;;;15.83;10.23;;;;;;;18.03;36.67;99709.03;6966818;28;20203;-84
2021/10/10 11:03:34;;;;;;;11.73;9.17;;;;;;;18.05;36.36;99695.16;6958030;28;20227;-83
2021/10/10 11:06:57;;;;;;;11.47;8.73;;;;;;;18.33;36.43;99689.97;6958918;28;20226;-83
2021/10/10 11:10:19;;;;;;;12.53;9.63;;;;;;;18.36;35.54;99657.56;6951891;28;20695;-83
2021/10/10 11:13:43;;;;;;;11.43;8.60;;;;;;;18.23;36.25;99695.91;6963458;28;20210;-84
2021/10/10 11:17:05;;;;;;;14.17;9.20;;;;;;;17.35;37.21;99693.09;6969398;28;20207;-83
2021/10/10 11:20:27;;;;;;;18.43;9.93;;;;;;;17.39;38.02;99686.16;6963447;28;20197;-84
2021/10/10 11:23:51;;;;;;;14.93;9.30;;;;;;;18.44;35.29;99689.97;6971611;28;20210;-84
2021/10/10 11:27:13;;;;;;;9.20;7.90;;;;;;;19.22;34.33;99671.41;6980273;28;20226;-83
2021/10/10 11:30:36;;;;;;;10.07;7.60;;;;;;;20.01;32.10;99693.31;6980131;28;20224;-83
2021/10/10 11:33:59;;;;;;;12.53;7.97;;;;;;;20.09;31.44;99677.38;6979996;28;20195;-83
2021/10/10 11:37:20;;;;;;;11.57;6.90;;;;;;;20.20;31.34;99672.91;6980122;28;20209;-83
2021/10/10 11:41:00;;;;;;;10.90;7.53;;;;;;;20.56;29.96;99681.50;6977474;28;20230;-84
2021/10/10 11:44:24;;;;;;;11.47;7.80;;;;;;;19.11;32.32;99686.69;6996291;28;20209;-84
2021/10/10 11:47:49;;;;;;;8.53;7.00;;;;;;;19.88;30.76;99674.44;7006896;28;20600;-84
2021/10/10 11:51:26;;;;;;;9.57;7.67;;;;;;;19.81;30.78;99663.63;7007041;28;20224;-83
2021/10/10 11:54:56;;;;;;;9.00;6.73;;;;;;;20.06;31.22;99677.00;7003958;28;20187;-83
2021/10/10 11:58:24;;;;;;;11.27;7.23;;;;;;;19.71;32.17;99655.25;6963856;28;20225;-84
2021/10/10 12:01:45;;;;;;;9.67;7.13;;;;;;;19.74;32.82;99648.47;6964607;28;20219;-83
2021/10/10 12:05:10;;;;;;;13.40;7.57;;;;;;;20.06;32.00;99650.50;6962619;28;20202;-83
2021/10/10 12:08:32;;;;;;;6.80;6.00;;;;;;;19.73;30.29;99649.50;6964618;28;20237;-86
2021/10/10 12:12:05;;;;;;;11.10;7.10;;;;;;;20.58;29.04;99623.72;6970675;28;20219;-85
2021/10/10 12:15:27;;;;;;;8.57;6.03;;;;;;;21.13;28.58;99641.03;6959303;28;20198;-85
2021/10/10 12:18:48;;;;;;;9.80;6.97;;;;;;;21.82;27.89;99652.97;6952843;28;20211;-84
2021/10/10 12:22:17;;;;;;;10.20;7.53;;;;;;;20.69;30.12;99645.56;6952311;28;20230;-84
2021/10/10 12:25:40;;;;;;;10.00;7.33;;;;;;;19.98;30.76;99650.84;6952816;28;20203;-84
2021/10/10 12:29:02;;;;;;;11.73;7.13;;;;;;;20.11;30.78;99636.06;6952872;28;20231;-85
2021/10/10 12:32:25;;;;;;;12.13;7.77;;;;;;;21.06;30.25;99644.00;6951738;28;20244;-85
2021/10/10 12:35:53;;;;;;;8.23;6.87;;;;;;;20.49;30.83;99628.78;6958052;28;20199;-85
2021/10/10 12:39:16;;;;;;;9.20;7.53;;;;;;;20.75;30.78;99639.06;6980165;28;20201;-85
2021/10/10 12:42:56;;;;;;;9.47;7.50;;;;;;;20.90;29.94;99633.03;6983406;28;20226;-85
2021/10/10 12:46:19;;;;;;;10.60;6.93;;;;;;;21.38;29.48;99623.88;6979274;28;20191;-82
2021/10/10 12:49:41;;;;;;;8.87;6.97;;;;;;;21.36;29.74;99623.28;6972456;28;20212;-84
2021/10/10 12:53:02;;;;;;;8.53;7.20;;;;;;;21.82;28.96;99609.03;6970498;28;20232;-84
2021/10/10 12:56:27;;;;;;;11.83;7.80;;;;;;;21.61;29.43;99617.28;6966594;28;20196;-83
2021/10/10 12:59:51;;;;;;;9.37;7.70;;;;;;;20.34;32.00;99620.31;6958176;28;20298;-84
2021/10/10 13:03:13;;;;;;;11.17;7.40;;;;;;;20.01;31.45;99567.38;7006186;28;20230;-83
2021/10/10 13:06:35;;;;;;;8.40;7.43;;;;;;;20.47;31.08;99616.41;7011274;28;20202;-84
2021/10/10 13:09:57;;;;;;;8.73;7.10;;;;;;;21.41;30.52;99595.91;7011401;28;20586;-84
2021/10/10 13:13:20;;;;;;;8.83;6.60;;;;;;;22.00;28.92;99613.34;7011161;28;20236;-85
2021/10/10 13:16:42;;;;;;;13.80;7.23;;;;;;;20.93;30.63;99616.91;7012727;28;20561;-85
2021/10/10 13:20:04;;;;;;;12.23;7.80;;;;;;;20.27;31.78;99611.41;7013211;28;20210;-85
2021/10/10 13:23:27;;;;;;;8.77;7.20;;;;;;;18.80;33.34;99563.28;6991543;28;20230;-85
2021/10/10 13:26:49;;;;;;;15.10;7.83;;;;;;;20.06;32.76;99617.63;6984991;28;20816;-85
2021/10/10 13:30:12;;;;;;;8.10;7.17;;;;;;;21.40;31.07;99607.97;6984970;28;20226;-85
2021/10/10 13:33:35;;;;;;;9.50;7.57;;;;;;;20.94;31.36;99593.88;6984628;28;20214;-85
2021/10/10 13:36:57;;;;;;;8.40;7.20;;;;;;;20.59;30.75;99541.28;6985158;28;20214;-85
2021/10/10 13:40:18;;;;;;;11.13;7.10;;;;;;;20.69;31.91;99582.50;6982551;28;20589;-85
2021/10/10 13:43:41;;;;;;;10.63;7.20;;;;;;;21.62;29.90;99592.31;6969107;28;20200;-85
2021/10/10 13:47:04;;;;;;;12.57;7.00;;;;;;;20.45;31.42;99537.22;6957940;28;20194;-85
2021/10/10 13:50:26;;;;;;;9.63;8.00;;;;;;;19.93;32.66;99601.47;6957462;28;20223;-85
2021/10/10 13:53:47;;;;;;;12.40;7.53;;;;;;;20.33;32.52;99596.72;6985165;28;20477;-85
2021/10/10 13:57:09;;;;;;;9.33;7.53;;;;;;;20.96;31.26;99593.63;6985239;28;20207;-83
2021/10/10 14:00:31;;;;;;;9.93;7.47;;;;;;;20.21;31.69;99522.03;6975562;28;20199;-84
2021/10/10 14:03:54;;;;;;;8.33;7.27;;;;;;;19.16;34.06;99607.53;6955827;28;20215;-87
2021/10/10 14:07:15;;;;;;;10.70;7.30;;;;;;;20.06;32.84;99578.44;6970042;28;20206;-87
2021/10/10 14:10:38;;;;;;;8.00;6.80;;;;;;;20.13;32.69;99571.75;6983868;28;20241;-86
2021/10/10 14:14:00;;;;;;;9.47;7.70;;;;;;;20.06;32.36;99597.59;6982827;28;20213;-88
2021/10/10 14:17:21;;;;;;;10.77;7.17;;;;;;;20.30;33.21;99616.41;6983915;28;20214;-87
2021/10/10 14:20:48;;;;;;;9.83;7.47;;;;;;;19.66;33.01;99551.16;6984560;28;20714;-86
2021/10/10 14:24:10;;;;;;;7.93;6.93;;;;;;;20.15;31.69;99479.22;6977248;28;20195;-84
2021/10/10 14:27:32;;;;;;;9.87;7.37;;;;;;;19.94;32.66;99586.69;6957166;28;20200;-85
2021/10/10 14:30:54;;;;;;;8.80;7.17;;;;;;;20.04;32.02;99540.34;6962792;28;20226;-85
2021/10/10 14:34:16;;;;;;;10.90;7.17;;;;;;;19.94;32.75;99551.09;7011291;28;20202;-85
2021/10/10 14:37:40;;;;;;;8.10;6.93;;;;;;;19.87;34.41;99596.16;6992860;28;20209;-86
2021/10/10 14:41:05;;;;;;;10.17;6.67;;;;;;;20.17;33.73;99594.00;6993521;28;20289;-83
2021/10/10 14:44:31;;;;;;;8.70;6.60;;;;;;;20.38;32.07;99602.31;7009730;28;20209;-83
2021/10/10 14:48:07;;;;;;;9.13;7.17;;;;;;;20.22;32.75;99573.00;7009247;28;20206;-83
2021/10/10 14:51:29;;;;;;;10.90;7.73;;;;;;;20.13;32.52;99598.28;7009158;28;20229;-83
2021/10/10 14:54:52;;;;;;;7.73;6.40;;;;;;;20.43;32.82;99591.44;7009457;28;20197;-83
2021/10/10 14:58:16;;;;;;;10.47;6.70;;;;;;;19.91;32.19;99606.38;6998766;28;20198;-81
2021/10/10 15:01:38;;;;;;;9.17;6.63;;;;;;;20.19;32.43;99592.66;6979463;28;20222;-82
2021/10/10 15:05:02;;;;;;;10.97;7.20;;;;;;;20.34;32.49;99578.41;6981924;28;20225;-83
2021/10/10 15:08:26;;;;;;;6.80;6.00;;;;;;;19.28;32.37;99582.94;6981647;28;20237;-82
2021/10/10 15:11:49;;;;;;;9.30;6.50;;;;;;;19.40;31.97;99594.69;6958469;28;20714;-82
2021/10/10 15:15:11;;;;;;;7.73;5.50;;;;;;;19.84;31.61;99582.94;6954611;28;20198;-85
2021/10/10 15:18:36;;;;;;;8.20;6.43;;;;;;;19.46;30.79;99547.22;6963919;28;20199;-82
2021/10/10 15:22:03;;;;;;;10.73;6.40;;;;;;;20.27;30.43;99575.81;6971334;28;20219;-82
2021/10/10 15:25:24;;;;;;;8.23;5.83;;;;;;;20.19;30.24;99551.59;6966944;28;20194;-82
2021/10/10 15:28:47;;;;;;;7.50;5.80;;;;;;;20.33;30.88;99568.53;6970926;28;20257;-83
2021/10/10 15:32:09;;;;;;;9.73;6.60;;;;;;;20.38;32.42;99582.28;7014900;22;20244;-80
2021/10/10 15:35:31;;;;;;;10.20;6.43;;;;;;;20.49;31.68;99570.41;7026954;28;20213;-80
2021/10/10 15:38:53;;;;;;;9.30;6.70;;;;;;;20.08;32.22;99585.34;7026151;28;20197;-80
2021/10/10 15:42:15;;;;;;;8.93;6.13;;;;;;;20.14;32.54;99569.81;7025011;28;20228;-77
2021/10/10 15:45:38;;;;;;;9.20;6.23;;;;;;;20.08;32.73;99581.78;7025629;28;20208;-78
2021/10/10 15:48:59;;;;;;;8.37;6.20;;;;;;;20.31;32.93;99593.44;7025767;28;20229;-77
2021/10/10 15:52:21;;;;;;;8.17;5.80;;;;;;;20.31;34.82;99595.31;7024818;28;20228;-80
2021/10/10 15:55:43;;;;;;;7.20;6.50;;;;;;;20.17;36.48;99594.00;7025268;28;20629;-80
2021/10/10 15:59:04;;;;;;;10.90;6.83;;;;;;;20.00;36.72;99583.00;7025218;28;20199;-78
2021/10/10 16:02:27;;;;;;;8.67;6.37;;;;;;;19.23;38.69;99596.50;7024142;28;20232;-78
2021/10/10 16:05:50;;;;;;;9.07;5.73;;;;;;;18.98;39.64;99601.41;7024602;28;20299;-78
2021/10/10 16:09:12;;;;;;;8.07;6.67;;;;;;;17.34;42.56;99612.38;7027179;28;20658;-78
2021/10/10 16:12:34;;;;;;;9.13;6.10;;;;;;;17.54;41.95;99602.06;7029491;28;20262;-78
2021/10/10 16:15:56;;;;;;;9.20;7.07;;;;;;;17.49;42.53;99626.44;7030911;28;20575;-78
2021/10/10 16:19:19;;;;;;;11.77;9.17;;;;;;;17.69;42.10;99616.94;7030568;28;20808;-79
2021/10/10 16:22:41;;;;;;;7.30;6.37;;;;;;;17.61;42.59;99591.88;7030029;28;20234;-80
2021/10/10 16:26:03;;;;;;;9.90;6.73;;;;;;;17.46;43.64;99605.94;7030613;28;20220;-80
2021/10/10 16:29:30;;;;;;;11.60;6.60;;;;;;;17.01;44.91;99601.88;7030897;28;20268;-81
2021/10/10 16:32:52;;;;;;;12.53;7.57;;;;;;;16.42;46.66;99601.63;7030229;28;20565;-80
2021/10/10 16:36:22;;;;;;;11.03;8.67;;;;;;;16.10;47.99;99594.53;7031600;28;20233;-82
2021/10/10 16:39:50;;;;;;;12.20;8.60;;;;;;;16.13;48.01;99601.41;7030459;28;20191;-78
2021/10/10 16:43:12;;;;;;;9.90;8.70;;;;;;;16.14;48.04;99587.59;7029041;28;20232;-78
2021/10/10 16:46:33;;;;;;;14.10;10.50;;;;;;;15.80;49.55;99590.78;7006896;28;20201;-79
2021/10/10 16:49:55;;;;;;;12.70;10.70;;;;;;;15.78;49.71;99582.00;7029333;28;20226;-79
2021/10/10 16:53:18;;;;;;;12.37;7.70;;;;;;;15.76;50.16;99586.81;7028828;28;20695;-80
2021/10/10 16:56:40;;;;;;;10.70;7.50;;;;;;;15.62;51.43;99585.25;7029508;28;20220;-80
2021/10/10 17:00:03;;;;;;;8.67;7.43;;;;;;;15.23;52.47;99593.56;7029210;28;20792;-79
2021/10/10 17:03:24;;;;;;;9.47;7.97;;;;;;;15.43;51.47;99593.50;7028537;28;20419;-78
2021/10/10 17:06:46;;;;;;;9.93;8.40;;;;;;;15.30;51.44;99594.38;7028710;28;20215;-80
2021/10/10 17:10:09;;;;;;;10.40;8.53;;;;;;;15.33;50.98;99604.03;7009962;28;20225;-79
2021/10/10 17:13:31;;;;;;;10.67;9.07;;;;;;;15.10;51.70;99609.91;6999693;28;20231;-78
2021/10/10 17:16:55;;;;;;;11.10;9.53;;;;;;;15.13;52.22;99636.66;7000189;28;20236;-79
2021/10/10 17:20:17;;;;;;;11.03;9.07;;;;;;;14.96;52.48;99640.88;7000083;28;20205;-79
2021/10/10 17:23:39;;;;;;;15.00;8.40;;;;;;;15.20;52.32;99645.63;7015956;28;20252;-80
2021/10/10 17:27:02;;;;;;;14.50;10.90;;;;;;;15.26;51.21;99641.19;7028168;28;20230;-79
2021/10/10 17:30:24;;;;;;;12.73;9.47;;;;;;;14.92;51.73;99661.38;7028021;28;20845;-79
2021/10/10 17:33:46;;;;;;;11.20;8.80;;;;;;;14.81;52.50;99656.56;7026939;28;20297;-80
2021/10/10 17:37:09;;;;;;;12.13;9.90;;;;;;;14.47;51.49;99648.69;7028443;28;20206;-78
2021/10/10 17:40:31;;;;;;;14.33;12.10;;;;;;;14.21;52.67;99658.72;7027719;28;20576;-78
2021/10/10 17:43:54;;;;;;;15.23;10.43;;;;;;;13.92;53.49;99646.31;7020562;28;20215;-78
2021/10/10 17:47:15;;;;;;;15.13;10.53;;;;;;;14.26;53.10;99667.88;7023543;28;20197;-79
2021/10/10 17:50:37;;;;;;;12.10;10.30;;;;;;;14.22;52.63;99680.19;7021146;28;20316;-78
2021/10/10 17:53:59;;;;;;;12.97;11.20;;;;;;;14.00;53.43;99684.09;6999708;28;20685;-78
2021/10/10 17:57:21;;;;;;;13.37;10.00;;;;;;;13.84;54.23;99676.34;6999590;28;20230;-78
2021/10/10 18:00:54;;;;;;;12.93;9.40;;;;;;;13.86;53.50;99652.56;6999680;28;20199;-79
2021/10/10 18:11:41;;;;;;;12.17;9.40;;;;;;;13.62;53.60;99687.53;7023242;28;20217;-79
2021/10/10 18:15:04;;;;;;;15.63;10.60;;;;;;;13.46;54.38;99682.47;7020525;28;20301;-78
2021/10/10 18:18:27;;;;;;;13.40;10.00;;;;;;;13.03;55.54;99689.94;7017321;28;20202;-78
2021/10/10 18:21:48;;;;;;;15.07;11.80;;;;;;;12.39;57.40;99680.28;7000137;28;20265;-79
2021/10/10 18:25:10;;;;;;;12.17;9.43;;;;;;;12.20;59.08;99696.31;7000750;28;20220;-79
2021/10/10 18:28:32;;;;;;;11.60;9.73;;;;;;;13.15;56.60;99695.66;6998914;28;20208;-79
2021/10/10 18:31:53;;;;;;;13.67;8.73;;;;;;;13.21;55.30;99694.84;6997410;28;20633;-79
2021/10/10 18:35:16;;;;;;;13.47;9.10;;;;;;;13.42;55.09;99683.91;6999204;28;20201;-79
2021/10/10 18:38:38;;;;;;;12.73;10.50;;;;;;;13.25;55.08;99696.09;7021217;28;20853;-79
2021/10/10 18:42:00;;;;;;;12.07;9.50;;;;;;;13.20;55.04;99702.13;7019172;28;20248;-78
2021/10/10 18:45:22;;;;;;;10.63;9.00;;;;;;;13.44;53.81;99709.75;7011749;28;20197;-78
2021/10/10 18:48:44;;;;;;;12.90;9.80;;;;;;;13.26;54.25;99706.75;7016473;28;20197;-79
2021/10/10 18:52:07;;;;;;;11.13;9.20;;;;;;;13.14;54.12;99673.13;7011194;28;20225;-79
2021/10/10 18:55:29;;;;;;;11.67;8.73;;;;;;;13.32;53.80;99714.06;7014613;28;20194;-79
2021/10/10 18:58:51;;;;;;;13.87;10.17;;;;;;;13.30;53.48;99712.59;7013455;28;20193;-78
2021/10/10 19:02:12;;;;;;;10.77;9.47;;;;;;;13.12;53.38;99699.59;7015675;28;20216;-78
2021/10/10 19:05:34;;;;;;;12.90;9.97;;;;;;;12.48;55.27;99718.84;7012126;28;20197;-78
2021/10/10 19:08:57;;;;;;;9.93;8.90;;;;;;;12.49;55.21;99694.31;7012405;28;20221;-77
2021/10/10 19:12:19;;;;;;;10.47;8.50;;;;;;;12.52;55.76;99706.63;7007661;28;20228;-78
2021/10/10 19:15:40;;;;;;;10.43;9.27;;;;;;;12.05;55.86;99704.50;7024107;28;20209;-78
2021/10/10 19:19:02;;;;;;;13.53;8.80;;;;;;;11.55;57.97;99709.94;7026157;28;20204;-78
2021/10/10 19:22:23;;;;;;;11.87;9.20;;;;;;;11.86;57.54;99724.06;7018349;28;20232;-78
2021/10/10 19:25:47;;;;;;;11.50;9.40;;;;;;;11.99;56.97;99726.06;7026238;28;20266;-78
2021/10/10 19:29:08;;;;;;;10.50;8.97;;;;;;;12.17;56.37;99726.47;7025326;28;20221;-78
2021/10/10 19:32:30;;;;;;;11.67;9.27;;;;;;;12.28;56.29;99715.16;7024998;28;20240;-79
2021/10/10 19:35:51;;;;;;;11.93;9.37;;;;;;;12.28;56.36;99715.97;7014352;28;20656;-78
2021/10/10 19:39:13;;;;;;;10.67;8.63;;;;;;;12.57;55.26;99714.97;7027155;28;20212;-79
2021/10/10 19:42:36;;;;;;;10.63;9.23;;;;;;;11.84;57.08;99725.25;7026286;28;20221;-78
2021/10/10 19:45:58;;;;;;;18.67;11.93;;;;;;;12.11;56.57;99730.75;7029608;28;20205;-78
2021/10/10 19:49:19;;;;;;;12.03;9.63;;;;;;;12.27;55.35;99735.91;7027923;28;20639;-78
2021/10/10 19:52:41;;;;;;;14.53;9.67;;;;;;;12.44;54.35;99731.06;7012729;28;20736;-79
2021/10/10 19:56:03;;;;;;;10.90;9.73;;;;;;;12.14;54.85;99734.94;7028093;28;20205;-77
2021/10/10 19:59:27;;;;;;;11.70;9.27;;;;;;;11.81;55.14;99721.09;7032502;28;20208;-78